Time;durP1;ratioP1;P1;durP2;ratioP2;P2;SDS_P1;SDS_P2;PMS_P1;PMS_P2;Temp;Humidity;BMP_temperature;BMP_pressure;BME280_temperature;BME280_humidity;BME280_pressure;Samples;Min_cycle;Max_cycle;Signal;HPM_P1;HPM_P2
2022/04/02 00:01:52;;;;;;;4.17;2.80;;;0.50;91.20;;;;;;4900254;29;20063;-76
2022/04/02 00:04:18;;;;;;;4.83;2.60;;;0.50;91.30;;;;;;4916652;29;20492;-76
2022/04/02 00:06:44;;;;;;;7.83;2.60;;;0.50;91.10;;;;;;4916996;29;20020;-75
2022/04/02 00:09:09;;;;;;;3.57;3.10;;;0.40;90.60;;;;;;4899761;29;20039;-75
2022/04/02 00:11:35;;;;;;;4.13;2.97;;;0.40;91.20;;;;;;4916826;29;20477;-75
2022/04/02 00:14:01;;;;;;;5.30;2.77;;;0.30;90.90;;;;;;4914641;29;20044;-76
2022/04/02 00:16:27;;;;;;;6.97;3.00;;;0.10;91.20;;;;;;4915338;29;20111;-76
2022/04/02 00:18:53;;;;;;;6.13;3.20;;;0.10;91.50;;;;;;4945231;23;20050;-79
2022/04/02 00:21:19;;;;;;;4.60;2.93;;;0.00;92.10;;;;;;4906024;29;20032;-80
2022/04/02 00:23:46;;;;;;;5.47;3.07;;;-0.10;93.00;;;;;;4924000;29;20032;-80
2022/04/02 00:26:13;;;;;;;5.97;2.70;;;-0.10;92.80;;;;;;4927550;29;20421;-80
2022/04/02 00:28:41;;;;;;;4.47;2.27;;;-0.20;93.20;;;;;;4915951;29;20470;-80
2022/04/02 00:31:08;;;;;;;5.80;2.60;;;-0.20;93.90;;;;;;4905892;29;20067;-80
2022/04/02 00:33:34;;;;;;;7.10;3.73;;;-0.20;94.10;;;;;;4903356;29;20041;-80
2022/04/02 00:36:01;;;;;;;7.43;3.10;;;-0.30;94.10;;;;;;4908078;29;20028;-80
2022/04/02 00:38:27;;;;;;;8.47;2.53;;;-0.30;94.00;;;;;;4905083;29;20040;-80
2022/04/02 00:40:53;;;;;;;4.90;2.37;;;-0.40;94.40;;;;;;4902830;29;20029;-80
2022/04/02 00:43:22;;;;;;;8.77;2.90;;;-0.40;94.60;;;;;;4907932;29;20083;-80
2022/04/02 00:45:49;;;;;;;7.60;2.50;;;-0.50;94.40;;;;;;4887022;29;20036;-79
2022/04/02 00:48:15;;;;;;;7.10;3.00;;;-0.60;94.80;;;;;;4907953;29;20497;-80
2022/04/02 00:50:40;;;;;;;5.60;3.17;;;-0.40;95.30;;;;;;4908087;29;20034;-79
2022/04/02 00:53:06;;;;;;;2.50;2.20;;;-0.30;94.80;;;;;;4903749;29;20108;-80
2022/04/02 00:55:33;;;;;;;8.50;3.03;;;-0.20;94.60;;;;;;4904635;29;20044;-80
2022/04/02 00:58:02;;;;;;;8.43;3.20;;;-0.20;94.70;;;;;;4908063;29;20020;-80
2022/04/02 01:00:28;;;;;;;7.10;2.80;;;-0.20;94.90;;;;;;4903140;29;20025;-80
2022/04/02 01:02:53;;;;;;;5.43;3.30;;;-0.30;94.50;;;;;;4904936;29;20028;-80
2022/04/02 01:05:20;;;;;;;4.10;2.63;;;-0.40;95.10;;;;;;4907576;29;20032;-79
2022/04/02 01:07:46;;;;;;;9.93;3.90;;;-0.40;95.40;;;;;;4884551;29;20016;-80
2022/04/02 01:10:12;;;;;;;7.30;3.63;;;-0.40;95.70;;;;;;4904898;29;20031;-79
2022/04/02 01:12:38;;;;;;;6.30;3.73;;;-0.40;95.50;;;;;;4903419;29;20516;-79
2022/04/02 01:15:04;;;;;;;6.67;4.07;;;-0.50;94.90;;;;;;4907439;29;20032;-79
2022/04/02 01:17:30;;;;;;;2.83;2.20;;;-0.60;95.60;;;;;;4927464;23;20029;-75
2022/04/02 01:19:56;;;;;;;9.40;3.77;;;-0.40;96.80;;;;;;4917606;29;20101;-76
2022/04/02 01:22:22;;;;;;;6.30;3.97;;;-0.40;95.50;;;;;;4915632;29;20027;-76
2022/04/02 01:24:48;;;;;;;5.43;3.43;;;-0.40;95.70;;;;;;4915505;29;20024;-76
2022/04/02 01:27:14;;;;;;;6.43;3.70;;;-0.50;96.20;;;;;;4916162;29;20107;-76
2022/04/02 01:29:40;;;;;;;3.67;3.33;;;-0.50;96.70;;;;;;4915190;29;20024;-76
2022/04/02 01:32:06;;;;;;;6.10;3.50;;;-0.40;97.20;;;;;;4898656;29;20035;-76
2022/04/02 01:34:32;;;;;;;6.70;3.57;;;-0.30;97.30;;;;;;4915536;29;20036;-76
2022/04/02 01:36:58;;;;;;;6.90;4.17;;;-0.20;96.90;;;;;;4915555;29;20027;-76
2022/04/02 01:39:24;;;;;;;7.60;3.90;;;-0.30;96.40;;;;;;4915607;29;20045;-76
2022/04/02 01:41:50;;;;;;;4.60;3.23;;;-0.10;96.50;;;;;;4915686;29;20032;-76
2022/04/02 01:44:16;;;;;;;9.40;3.70;;;-0.10;96.20;;;;;;4915427;29;20028;-76
2022/04/02 01:46:41;;;;;;;6.50;3.57;;;-0.20;96.40;;;;;;4915891;29;20051;-76
2022/04/02 01:49:07;;;;;;;10.17;4.40;;;-0.20;97.00;;;;;;4918429;29;20024;-76
2022/04/02 01:51:33;;;;;;;8.53;3.50;;;-0.20;96.90;;;;;;4915713;29;20443;-76
2022/04/02 01:53:58;;;;;;;7.63;3.23;;;-0.20;96.90;;;;;;4915437;29;20497;-76
2022/04/02 01:56:24;;;;;;;3.57;3.10;;;-0.20;97.50;;;;;;4915738;29;20024;-75
2022/04/02 01:58:50;;;;;;;6.80;3.07;;;-0.10;97.30;;;;;;4915589;29;20564;-76
2022/04/02 02:01:16;;;;;;;4.27;3.10;;;-0.10;96.70;;;;;;4915582;29;20028;-76
2022/04/02 02:03:41;;;;;;;4.23;3.03;;;-0.30;96.70;;;;;;4915371;29;20020;-76
2022/04/02 02:06:07;;;;;;;6.73;3.70;;;-0.30;97.20;;;;;;4915354;29;20035;-76
2022/04/02 02:08:33;;;;;;;7.10;3.63;;;-0.30;97.50;;;;;;4915372;29;20021;-76
2022/04/02 02:10:59;;;;;;;8.37;3.27;;;-0.30;97.80;;;;;;4915505;29;20024;-75
2022/04/02 02:13:25;;;;;;;15.17;4.50;;;-0.30;97.60;;;;;;4898165;29;20107;-75
2022/04/02 02:15:50;;;;;;;6.73;3.70;;;-0.30;98.10;;;;;;4915431;29;20027;-76
2022/04/02 02:18:16;;;;;;;6.60;3.93;;;-0.20;97.90;;;;;;4939850;23;20044;-82
2022/04/02 02:20:43;;;;;;;7.63;4.07;;;-0.30;97.60;;;;;;4914988;29;20385;-82
2022/04/02 02:23:09;;;;;;;5.33;4.27;;;-0.20;97.70;;;;;;4921618;29;20016;-82
2022/04/02 02:25:35;;;;;;;7.53;3.83;;;-0.10;97.60;;;;;;4914445;29;20679;-81
2022/04/02 02:28:01;;;;;;;6.80;4.40;;;-0.30;96.90;;;;;;4898259;29;20031;-82
2022/04/02 02:30:27;;;;;;;5.83;3.77;;;-0.40;97.60;;;;;;4915194;29;20050;-82
2022/04/02 02:35:49;;;;;;;5.63;4.20;;;-0.40;97.70;;;;;;4914982;29;20447;-82
2022/04/02 02:35:51;;;;;;;8.20;4.40;;;-0.40;98.30;;;;;;4914989;29;20477;-82
2022/04/02 02:38:21;;;;;;;9.53;4.33;;;-0.50;97.90;;;;;;4915395;29;20063;-81
2022/04/02 02:40:48;;;;;;;5.27;4.67;;;-0.60;98.00;;;;;;4898129;29;20389;-81
2022/04/02 02:43:14;;;;;;;10.23;4.60;;;-0.70;98.30;;;;;;4901772;29;20058;-81
2022/04/02 02:45:39;;;;;;;9.83;6.03;;;-0.70;98.80;;;;;;4901922;29;20063;-81
2022/04/02 02:48:05;;;;;;;10.13;5.37;;;-0.40;99.50;;;;;;4903713;29;20433;-81
2022/04/02 02:50:32;;;;;;;11.17;6.10;;;-0.30;99.30;;;;;;4918610;29;20035;-82
2022/04/02 02:52:58;;;;;;;10.47;6.07;;;-0.30;99.20;;;;;;4901537;29;20020;-81
2022/04/02 02:55:23;;;;;;;11.07;6.17;;;-0.10;99.20;;;;;;4918584;29;20120;-81
2022/04/02 02:57:49;;;;;;;9.73;5.83;;;0.00;99.00;;;;;;4901261;29;20115;-81
2022/04/02 03:00:16;;;;;;;8.60;6.07;;;0.10;98.50;;;;;;4918569;29;20040;-81
2022/04/02 03:02:42;;;;;;;12.53;6.77;;;0.10;98.50;;;;;;4918354;29;20024;-81
2022/04/02 03:05:13;;;;;;;9.77;6.17;;;0.30;98.40;;;;;;4917764;29;20028;-82
2022/04/02 03:07:50;;;;;;;12.80;6.10;;;0.40;98.00;;;;;;4917965;29;20655;-81
2022/04/02 03:10:17;;;;;;;9.17;5.97;;;0.40;97.60;;;;;;4901322;29;20343;-81
2022/04/02 03:12:43;;;;;;;12.13;6.53;;;0.40;97.70;;;;;;4901066;29;20044;-81
2022/04/02 03:15:10;;;;;;;16.67;6.33;;;0.40;97.50;;;;;;4901054;29;20092;-81
2022/04/02 03:17:36;;;;;;;13.47;6.60;;;0.40;97.50;;;;;;4915064;23;20123;-77
2022/04/02 03:20:02;;;;;;;11.40;6.20;;;0.30;97.50;;;;;;4902506;29;20124;-77
2022/04/02 03:22:28;;;;;;;10.50;6.23;;;0.20;97.70;;;;;;4898828;29;20029;-77
2022/04/02 03:24:56;;;;;;;9.43;6.50;;;0.20;98.00;;;;;;4898791;29;20036;-77
2022/04/02 03:27:22;;;;;;;13.73;6.93;;;0.20;98.40;;;;;;4899000;29;20508;-77
2022/04/02 03:29:48;;;;;;;13.23;6.97;;;0.20;98.40;;;;;;4912574;29;20028;-77
2022/04/02 03:32:14;;;;;;;12.23;6.67;;;0.20;98.40;;;;;;4910252;29;20025;-77
2022/04/02 03:34:40;;;;;;;14.90;6.50;;;0.20;98.40;;;;;;4916336;29;20047;-77
2022/04/02 03:37:06;;;;;;;15.43;7.00;;;0.20;98.80;;;;;;4916651;29;20107;-77
2022/04/02 03:39:31;;;;;;;11.37;7.70;;;0.10;98.60;;;;;;4916627;29;20032;-76
2022/04/02 03:41:57;;;;;;;14.20;8.00;;;0.10;98.70;;;;;;4916220;29;20397;-77
2022/04/02 03:44:23;;;;;;;16.90;8.90;;;0.00;98.90;;;;;;4916159;29;20496;-77
2022/04/02 03:49:33;;;;;;;14.10;8.70;;;0.00;98.90;;;;;;4911985;29;20035;-77
2022/04/02 03:51:59;;;;;;;14.93;8.57;;;0.00;99.10;;;;;;4916291;29;20029;-77
2022/04/02 03:54:24;;;;;;;15.73;8.80;;;-0.10;99.30;;;;;;4916573;29;20111;-77
2022/04/02 03:56:50;;;;;;;17.87;9.97;;;-0.10;99.40;;;;;;4916922;29;20043;-77
2022/04/02 03:59:16;;;;;;;19.43;10.40;;;0.00;99.70;;;;;;4916097;29;20401;-77
2022/04/02 04:01:42;;;;;;;17.37;9.80;;;0.00;99.70;;;;;;4916240;29;20035;-76
2022/04/02 04:04:08;;;;;;;20.27;11.10;;;0.00;99.80;;;;;;4915976;29;20032;-77
2022/04/02 04:06:34;;;;;;;17.90;9.90;;;0.00;99.80;;;;;;4899261;29;20032;-77
2022/04/02 04:09:00;;;;;;;24.50;10.87;;;0.10;99.90;;;;;;4915759;29;20493;-77
2022/04/02 04:11:26;;;;;;;21.93;10.13;;;0.10;99.90;;;;;;4916219;29;20031;-77
2022/04/02 04:13:53;;;;;;;16.47;10.50;;;0.00;99.70;;;;;;4916149;29;20393;-77
2022/04/02 04:16:20;;;;;;;16.83;10.17;;;0.10;99.90;;;;;;4915872;29;20024;-77
2022/04/02 04:18:46;;;;;;;24.87;11.10;;;-0.10;99.80;;;;;;4946283;23;20054;-80
2022/04/02 04:21:14;;;;;;;20.83;10.10;;;-0.10;99.90;;;;;;4935592;29;20024;-80
2022/04/02 04:23:40;;;;;;;20.33;11.07;;;0.00;99.90;;;;;;4934937;29;20035;-81
2022/04/02 04:26:06;;;;;;;19.57;11.23;;;0.10;99.90;;;;;;4935522;29;20023;-82
2022/04/02 04:28:32;;;;;;;19.10;10.27;;;0.10;99.90;;;;;;4933732;29;20032;-81
2022/04/02 04:30:58;;;;;;;20.10;10.30;;;0.10;99.90;;;;;;4916730;29;20420;-82
2022/04/02 04:33:24;;;;;;;23.30;10.50;;;0.10;99.90;;;;;;4916387;29;20498;-83
2022/04/02 04:35:49;;;;;;;17.17;8.47;;;0.20;99.90;;;;;;4916794;29;20056;-82
2022/04/02 04:38:15;;;;;;;21.67;11.17;;;0.30;99.90;;;;;;4899364;29;20404;-82
2022/04/02 04:40:41;;;;;;;20.90;11.27;;;0.30;99.90;;;;;;4916719;29;20034;-82
2022/04/02 04:43:07;;;;;;;19.90;10.90;;;0.20;99.90;;;;;;4915949;29;20020;-82
2022/04/02 04:45:33;;;;;;;20.23;10.77;;;0.30;99.90;;;;;;4916354;29;20181;-82
2022/04/02 04:47:59;;;;;;;21.60;10.77;;;0.20;99.90;;;;;;4917316;29;20024;-82
2022/04/02 04:50:26;;;;;;;22.40;11.53;;;0.20;99.90;;;;;;4916392;29;20050;-82
2022/04/02 04:52:52;;;;;;;26.80;11.40;;;0.20;99.90;;;;;;4916295;29;20365;-82
2022/04/02 04:55:19;;;;;;;18.27;10.00;;;0.10;99.90;;;;;;4899356;29;20132;-81
2022/04/02 04:57:44;;;;;;;24.43;11.07;;;0.20;99.90;;;;;;4915846;29;20028;-82
2022/04/02 05:00:11;;;;;;;20.63;11.70;;;0.20;99.90;;;;;;4916132;29;20042;-83
2022/04/02 05:02:37;;;;;;;19.03;11.77;;;0.10;99.90;;;;;;4916144;29;20036;-82
2022/04/02 05:05:02;;;;;;;23.17;11.80;;;0.20;99.90;;;;;;4915250;29;20024;-82
2022/04/02 05:07:29;;;;;;;25.60;13.10;;;0.00;99.90;;;;;;4915937;29;20054;-82
2022/04/02 05:09:55;;;;;;;20.77;11.70;;;0.00;99.90;;;;;;4916256;29;20111;-82
2022/04/02 05:12:21;;;;;;;21.77;11.73;;;-0.20;99.90;;;;;;4916021;29;20110;-81
2022/04/02 05:14:49;;;;;;;20.97;11.37;;;-0.20;99.90;;;;;;4915887;29;20071;-81
2022/04/02 05:17:16;;;;;;;21.23;11.53;;;-0.30;99.90;;;;;;4915971;29;20028;-82
2022/04/02 05:19:42;;;;;;;21.13;12.80;;;-0.40;99.90;;;;;;4943986;23;20044;-76
2022/04/02 05:22:10;;;;;;;23.27;11.60;;;-0.40;99.90;;;;;;4941618;29;20027;-76
2022/04/02 05:24:36;;;;;;;21.97;11.93;;;-0.60;99.90;;;;;;4935040;29;20027;-76
2022/04/02 05:27:03;;;;;;;27.30;12.90;;;-0.50;99.90;;;;;;4935064;29;20078;-76
2022/04/02 05:29:30;;;;;;;21.90;11.90;;;-0.50;99.90;;;;;;4946617;29;20753;-76
2022/04/02 05:31:55;;;;;;;23.23;12.70;;;-0.70;99.90;;;;;;4952798;29;20019;-76
2022/04/02 05:34:21;;;;;;;27.97;14.50;;;-0.70;99.90;;;;;;4952348;29;20050;-76
2022/04/02 05:36:47;;;;;;;24.87;13.80;;;-0.70;99.90;;;;;;4952991;29;20523;-76
2022/04/02 05:39:13;;;;;;;32.50;15.17;;;-0.80;99.90;;;;;;4952696;29;20094;-76
2022/04/02 05:41:39;;;;;;;28.67;15.07;;;-0.90;99.90;;;;;;4952669;29;20034;-76
2022/04/02 05:44:07;;;;;;;29.67;15.27;;;-1.00;99.90;;;;;;4952854;29;20019;-76
2022/04/02 05:46:33;;;;;;;34.47;16.47;;;-0.90;99.90;;;;;;4952858;29;20452;-76
2022/04/02 05:48:59;;;;;;;33.73;16.60;;;-0.70;99.90;;;;;;4934467;29;20058;-76
2022/04/02 05:51:25;;;;;;;35.57;16.33;;;-0.60;99.90;;;;;;4952626;29;20055;-76
2022/04/02 05:53:51;;;;;;;32.73;15.33;;;-0.60;99.90;;;;;;4952733;29;20035;-76
2022/04/02 05:56:18;;;;;;;31.03;16.13;;;-0.60;99.90;;;;;;4952308;29;20026;-76
2022/04/02 05:58:44;;;;;;;28.93;15.40;;;-0.60;99.90;;;;;;4952258;29;20101;-76
2022/04/02 06:01:10;;;;;;;35.03;14.97;;;-0.60;99.90;;;;;;4952406;29;20024;-76
2022/04/02 06:03:39;;;;;;;32.53;15.50;;;-0.50;99.90;;;;;;4952174;29;20028;-76
2022/04/02 06:06:07;;;;;;;28.23;15.13;;;-0.40;99.90;;;;;;4952794;29;20098;-76
2022/04/02 06:08:33;;;;;;;27.47;15.23;;;-0.40;99.90;;;;;;4928686;29;20027;-76
2022/04/02 06:10:59;;;;;;;28.47;15.13;;;-0.30;99.90;;;;;;4952301;29;20027;-76
2022/04/02 06:13:25;;;;;;;27.53;14.77;;;-0.20;99.90;;;;;;4952292;29;20071;-76
2022/04/02 06:15:51;;;;;;;30.23;14.53;;;-0.20;99.90;;;;;;4953976;28;20121;-76
2022/04/02 06:18:19;;;;;;;29.07;14.90;;;-0.10;99.90;;;;;;4972961;23;20043;-82
2022/04/02 06:20:46;;;;;;;34.37;15.40;;;0.00;99.90;;;;;;4935457;29;20115;-82
2022/04/02 06:23:13;;;;;;;29.40;14.37;;;0.00;99.90;;;;;;4936388;29;20231;-81
2022/04/02 06:25:39;;;;;;;27.17;14.03;;;0.10;99.90;;;;;;4936059;29;20019;-82
2022/04/02 06:28:05;;;;;;;28.87;13.57;;;0.20;99.90;;;;;;4918288;29;20067;-82
2022/04/02 06:30:31;;;;;;;33.70;14.73;;;0.20;99.90;;;;;;4934889;29;20027;-82
2022/04/02 06:32:57;;;;;;;23.90;13.07;;;0.30;99.90;;;;;;4933800;29;20032;-80
2022/04/02 06:35:23;;;;;;;19.90;10.50;;;0.40;99.90;;;;;;4935861;29;20516;-82
2022/04/02 06:37:50;;;;;;;28.30;14.67;;;0.50;99.90;;;;;;4937078;29;20028;-82
2022/04/02 06:40:16;;;;;;;17.90;10.03;;;0.60;99.90;;;;;;4935436;29;20421;-82
2022/04/02 06:42:42;;;;;;;24.47;14.10;;;0.70;99.90;;;;;;4935319;29;20019;-82
2022/04/02 06:45:09;;;;;;;26.87;15.00;;;0.70;99.80;;;;;;4934934;29;20114;-82
2022/04/02 06:47:35;;;;;;;23.77;13.17;;;0.70;99.70;;;;;;4935043;29;20095;-83
2022/04/02 06:50:09;;;;;;;25.67;13.97;;;0.70;99.70;;;;;;4935876;29;20028;-82
2022/04/02 06:52:35;;;;;;;26.17;14.13;;;0.80;99.70;;;;;;4932689;29;20094;-83
2022/04/02 06:55:01;;;;;;;29.07;14.20;;;0.80;99.90;;;;;;4935980;29;20055;-82
2022/04/02 06:57:27;;;;;;;29.90;14.37;;;0.90;99.70;;;;;;4935853;29;20028;-82
2022/04/02 06:59:53;;;;;;;33.50;14.80;;;1.00;99.80;;;;;;4935866;29;20042;-82
2022/04/02 07:02:20;;;;;;;25.93;13.50;;;1.10;99.80;;;;;;4934791;29;20488;-82
2022/04/02 07:04:46;;;;;;;25.10;12.90;;;1.10;99.40;;;;;;4935339;29;20020;-82
2022/04/02 07:07:12;;;;;;;17.33;11.47;;;1.20;99.40;;;;;;4935709;29;20032;-82
2022/04/02 07:09:38;;;;;;;28.27;12.67;;;1.20;99.10;;;;;;4918331;29;20146;-82
2022/04/02 07:12:05;;;;;;;21.73;11.40;;;1.40;99.20;;;;;;4917451;29;20461;-82
2022/04/02 07:14:32;;;;;;;25.53;12.40;;;1.70;99.20;;;;;;4934273;29;20039;-82
2022/04/02 07:16:58;;;;;;;18.50;10.60;;;1.90;99.70;;;;;;4935180;29;20028;-82
2022/04/02 07:19:25;;;;;;;21.17;10.47;;;2.10;97.60;;;;;;4934421;29;20510;-83
2022/04/02 07:21:52;;;;;;;18.87;11.23;;;2.20;97.00;;;;;;4934656;29;20028;-82
2022/04/02 07:24:18;;;;;;;20.77;10.63;;;2.20;96.50;;;;;;4931992;29;20106;-81
2022/04/02 07:26:45;;;;;;;22.60;10.53;;;2.30;96.40;;;;;;4934197;28;20520;-83
2022/04/02 07:29:13;;;;;;;17.57;8.80;;;2.20;96.20;;;;;;4935413;29;20047;-82
2022/04/02 07:31:39;;;;;;;16.30;9.33;;;2.40;96.10;;;;;;4918406;29;20091;-82
2022/04/02 07:34:05;;;;;;;18.07;10.70;;;2.50;95.50;;;;;;4918438;29;20508;-82
2022/04/02 07:36:58;;;;;;;17.83;10.23;;;2.60;95.60;;;;;;4935917;29;20027;-83
2022/04/02 07:39:45;;;;;;;17.47;9.83;;;2.70;95.30;;;;;;4929092;29;20503;-82
2022/04/02 07:42:26;;;;;;;15.20;9.90;;;2.80;94.90;;;;;;4929391;29;20095;-82
2022/04/02 07:45:05;;;;;;;13.33;9.07;;;2.90;94.40;;;;;;4935355;29;20020;-82
2022/04/02 07:50:15;;;;;;;14.30;9.00;;;3.00;94.60;;;;;;4942631;29;20055;-76
2022/04/02 07:52:46;;;;;;;16.67;9.43;;;3.10;94.70;;;;;;4918855;29;20441;-75
2022/04/02 07:55:13;;;;;;;16.13;8.23;;;3.30;94.00;;;;;;4936538;29;20110;-77
2022/04/02 07:57:40;;;;;;;18.67;8.97;;;3.40;93.10;;;;;;4936575;29;20019;-76
2022/04/02 08:00:10;;;;;;;14.27;8.83;;;3.40;93.50;;;;;;4916809;29;20107;-76
2022/04/02 08:02:42;;;;;;;17.03;8.10;;;3.60;92.90;;;;;;4917531;29;20027;-76
2022/04/02 08:05:10;;;;;;;12.73;7.13;;;3.80;92.60;;;;;;4917058;29;20032;-76
2022/04/02 08:07:39;;;;;;;14.50;7.63;;;3.90;92.30;;;;;;4917089;29;20031;-76
2022/04/02 08:10:08;;;;;;;13.53;8.37;;;4.00;91.90;;;;;;4917301;29;20107;-76
2022/04/02 08:12:41;;;;;;;13.97;7.80;;;4.10;92.00;;;;;;4900016;29;20537;-76
2022/04/02 08:15:14;;;;;;;10.20;6.53;;;4.30;91.40;;;;;;4917164;29;20048;-76
2022/04/02 08:17:41;;;;;;;16.00;7.63;;;4.40;90.90;;;;;;4922649;29;20016;-76
2022/04/02 08:20:07;;;;;;;12.10;5.77;;;4.40;91.50;;;;;;4928827;29;20676;-76
2022/04/02 08:22:34;;;;;;;11.20;5.00;;;4.50;90.80;;;;;;4926019;29;20028;-76
2022/04/02 08:24:59;;;;;;;10.23;5.23;;;4.70;89.30;;;;;;4897752;29;20035;-78
2022/04/02 08:27:51;;;;;;;8.83;4.90;;;4.80;90.10;;;;;;4916035;29;20016;-76
2022/04/02 08:30:27;;;;;;;9.17;4.60;;;5.10;88.10;;;;;;4886896;29;20036;-75
2022/04/02 08:33:23;;;;;;;7.50;4.20;;;5.10;87.30;;;;;;4919606;29;20035;-76
2022/04/02 08:36:09;;;;;;;7.50;3.37;;;5.40;85.60;;;;;;4930165;29;20032;-76
2022/04/02 08:39:09;;;;;;;5.93;3.27;;;5.60;84.50;;;;;;4915627;29;20477;-76
2022/04/02 08:41:50;;;;;;;6.50;3.50;;;5.90;81.20;;;;;;4872534;29;20064;-76
2022/04/02 08:44:53;;;;;;;6.77;3.50;;;6.20;82.50;;;;;;4926900;29;20106;-76
2022/04/02 08:50:30;;;;;;;4.88;2.38;;;7.20;79.70;;;;;;4919120;29;20056;-80
2022/04/02 08:53:16;;;;;;;4.53;2.40;;;7.40;74.20;;;;;;4916994;29;20075;-80
2022/04/02 08:55:47;;;;;;;7.30;2.72;;;7.70;72.50;;;;;;4905355;29;20024;-80
2022/04/02 08:58:28;;;;;;;4.17;2.40;;;8.20;75.00;;;;;;4917612;29;20074;-80
2022/04/02 09:01:09;;;;;;;4.00;2.00;;;8.60;71.60;;;;;;4915445;29;20278;-80
2022/04/02 09:03:57;;;;;;;4.43;2.20;;;8.70;70.80;;;;;;4915909;29;20032;-80
2022/04/02 09:06:54;;;;;;;2.25;1.77;;;8.90;64.60;;;;;;4916130;29;20028;-80
2022/04/02 09:09:35;;;;;;;5.53;2.42;;;9.10;69.20;;;;;;4915714;29;20086;-80
2022/04/02 09:12:19;;;;;;;9.07;3.97;;;9.30;65.00;;;;;;4915906;29;20385;-80
2022/04/02 09:14:47;;;;;;;6.45;1.27;;;10.00;64.50;;;;;;4922337;29;20443;-79
2022/04/02 09:17:25;;;;;;;2.90;1.80;;;9.90;56.60;;;;;;4919803;29;20111;-80
2022/04/02 09:20:15;;;;;;;2.33;1.60;;;9.50;58.60;;;;;;4921421;29;20651;-80
2022/04/02 09:23:06;;;;;;;2.97;1.20;;;10.60;61.10;;;;;;4914144;29;20028;-80
2022/04/02 09:25:53;;;;;;;1.20;1.10;;;11.80;50.90;;;;;;4897984;29;20148;-80
2022/04/02 09:28:19;;;;;;;3.20;1.17;;;11.90;51.60;;;;;;4915555;29;20028;-80
2022/04/02 09:31:21;;;;;;;6.40;1.52;;;12.30;49.90;;;;;;4915092;29;20035;-80
2022/04/02 09:34:12;;;;;;;2.67;0.90;;;12.70;50.50;;;;;;4915469;29;20392;-80
2022/04/02 09:36:59;;;;;;;2.60;1.13;;;13.20;46.20;;;;;;4915819;29;20107;-80
2022/04/02 09:39:54;;;;;;;6.40;1.95;;;12.00;46.30;;;;;;4898079;29;20040;-80
2022/04/02 09:42:41;;;;;;;6.03;0.95;;;12.20;46.50;;;;;;4902871;29;20036;-80
2022/04/02 09:45:12;;;;;;;2.97;1.60;;;12.20;45.00;;;;;;4914962;29;20544;-80
2022/04/02 09:50:23;;;;;;;3.25;1.77;;;14.80;39.80;;;;;;4917456;29;20515;-78
2022/04/02 09:53:16;;;;;;;5.25;1.30;;;16.10;39.70;;;;;;4918590;29;20429;-77
2022/04/02 09:55:53;;;;;;;2.35;1.10;;;16.80;35.70;;;;;;4919178;29;20106;-76
2022/04/02 09:58:22;;;;;;;3.85;1.58;;;14.50;35.00;;;;;;4905096;29;20030;-76
2022/04/02 10:01:04;;;;;;;2.50;0.70;;;13.50;38.20;;;;;;4914175;29;20032;-76
2022/04/02 10:03:52;;;;;;;2.35;0.90;;;13.60;38.70;;;;;;4913916;29;20541;-77
2022/04/02 10:06:20;;;;;;;1.17;0.50;;;14.90;36.00;;;;;;4913715;29;20036;-76
2022/04/02 10:09:04;;;;;;;0.52;0.52;;;15.90;37.40;;;;;;4914008;29;20129;-77
2022/04/02 10:11:32;;;;;;;1.35;0.60;;;16.60;31.80;;;;;;4909295;29;20032;-77
2022/04/02 10:13:59;;;;;;;1.95;0.60;;;15.90;35.30;;;;;;4914393;29;20032;-77
2022/04/02 10:16:26;;;;;;;2.08;0.70;;;16.40;34.30;;;;;;4914268;29;20055;-77
2022/04/02 10:18:57;;;;;;;1.65;0.60;;;16.20;34.10;;;;;;4913350;29;20029;-78
2022/04/02 10:21:23;;;;;;;3.50;0.57;;;17.60;32.50;;;;;;4896956;29;20123;-77
2022/04/02 10:24:04;;;;;;;1.10;0.90;;;17.90;31.70;;;;;;4913771;29;20028;-76
2022/04/02 10:26:38;;;;;;;1.17;0.98;;;15.70;30.00;;;;;;4914107;29;20028;-77
2022/04/02 10:29:15;;;;;;;1.42;0.68;;;15.40;34.30;;;;;;4913867;29;20485;-77
2022/04/02 10:31:47;;;;;;;3.72;0.70;;;14.80;34.40;;;;;;4914099;29;20047;-77
2022/04/02 10:34:26;;;;;;;1.85;0.60;;;15.20;33.70;;;;;;4913704;29;20068;-76
2022/04/02 10:37:00;;;;;;;2.42;1.15;;;15.40;32.90;;;;;;4909761;29;20537;-76
2022/04/02 10:39:29;;;;;;;1.42;0.73;;;14.60;33.90;;;;;;4907609;29;20034;-77
2022/04/02 10:42:00;;;;;;;3.35;0.70;;;16.10;30.30;;;;;;4913834;29;20652;-77
2022/04/02 10:44:59;;;;;;;0.60;0.30;;;16.00;28.10;;;;;;4913808;29;20088;-77
2022/04/02 10:47:30;;;;;;;4.47;0.82;;;15.60;29.10;;;;;;4862294;29;20371;-77
2022/04/02 10:50:07;;;;;;;5.32;0.85;;;14.70;30.10;;;;;;4941516;23;20032;-80
2022/04/02 10:52:34;;;;;;;3.67;0.60;;;14.90;34.00;;;;;;4914610;29;20512;-80
2022/04/02 10:55:01;;;;;;;1.80;0.80;;;16.00;28.60;;;;;;4915188;29;20028;-80
2022/04/02 10:57:28;;;;;;;2.35;0.52;;;15.50;30.30;;;;;;4914900;29;20021;-80
2022/04/02 11:00:00;;;;;;;0.98;0.60;;;14.90;29.00;;;;;;4930264;29;20059;-81
2022/04/02 11:02:39;;;;;;;5.13;1.27;;;14.30;31.80;;;;;;4933718;29;20023;-80
2022/04/02 11:05:06;;;;;;;1.33;0.80;;;15.90;31.10;;;;;;4919475;29;20464;-80
2022/04/02 11:08:01;;;;;;;13.15;1.15;;;17.30;29.40;;;;;;4936712;29;20030;-81
2022/04/02 11:10:27;;;;;;;5.20;1.10;;;18.90;29.20;;;;;;4931494;29;20024;-81
2022/04/02 11:13:00;;;;;;;1.75;0.63;;;20.10;24.30;;;;;;4936090;29;20551;-81
2022/04/02 11:15:31;;;;;;;3.10;1.13;;;20.80;23.20;;;;;;4936321;29;20397;-80
2022/04/02 11:17:59;;;;;;;1.27;0.90;;;21.20;21.60;;;;;;4936201;29;20023;-80
2022/04/02 11:20:32;;;;;;;1.30;0.60;;;20.00;22.90;;;;;;4935894;29;20027;-80
2022/04/02 11:23:42;;;;;;;0.93;0.70;;;20.10;25.60;;;;;;4936304;29;20520;-79
2022/04/02 11:26:12;;;;;;;1.05;0.60;;;21.00;25.70;;;;;;4917553;29;20042;-80
2022/04/02 11:28:44;;;;;;;1.15;0.80;;;18.90;24.80;;;;;;4936030;29;20035;-79
2022/04/02 11:31:12;;;;;;;3.47;0.82;;;15.80;28.60;;;;;;4936459;29;20031;-80
2022/04/02 11:33:51;;;;;;;1.73;0.90;;;15.30;29.40;;;;;;4935750;29;20495;-80
2022/04/02 11:36:21;;;;;;;1.00;0.63;;;17.10;27.80;;;;;;4936009;29;20083;-80
2022/04/02 11:38:57;;;;;;;2.30;0.90;;;17.60;28.30;;;;;;4935716;29;20083;-80
2022/04/02 11:41:31;;;;;;;1.63;0.68;;;17.40;26.60;;;;;;4936146;29;20024;-80
2022/04/02 11:44:14;;;;;;;5.00;0.90;;;16.20;26.00;;;;;;4929787;29;20047;-80
2022/04/02 11:47:10;;;;;;;1.77;1.05;;;15.30;28.80;;;;;;4929895;29;20106;-80
2022/04/02 11:49:40;;;;;;;1.67;0.90;;;15.00;28.60;;;;;;4934664;23;20126;-76
2022/04/02 11:52:11;;;;;;;2.72;0.55;;;15.80;31.80;;;;;;4929110;29;20028;-77
2022/04/02 11:54:41;;;;;;;1.02;0.45;;;18.20;28.10;;;;;;4935295;29;20035;-77
2022/04/02 11:57:09;;;;;;;2.42;0.63;;;17.20;24.40;;;;;;4935497;29;20028;-76
2022/04/02 11:59:36;;;;;;;1.67;0.70;;;17.30;26.00;;;;;;4928873;29;20040;-78
2022/04/02 12:02:02;;;;;;;3.35;0.40;;;18.10;23.60;;;;;;4924141;29;20017;-77
2022/04/02 12:04:28;;;;;;;2.95;0.68;;;19.90;27.00;;;;;;4925835;29;20079;-77
2022/04/02 12:07:06;;;;;;;3.53;0.50;;;20.20;20.70;;;;;;4927545;29;20020;-77
2022/04/02 12:09:33;;;;;;;1.10;0.50;;;19.50;22.50;;;;;;4923707;29;20381;-77
2022/04/02 12:12:05;;;;;;;1.27;0.50;;;19.40;22.20;;;;;;4927806;29;20012;-77
2022/04/02 12:14:39;;;;;;;3.50;0.63;;;19.40;22.60;;;;;;4925385;29;20270;-77
2022/04/02 12:17:10;;;;;;;1.88;0.68;;;19.60;22.40;;;;;;4924686;29;20024;-76
2022/04/02 12:19:52;;;;;;;1.75;0.63;;;18.90;23.20;;;;;;4927484;29;20122;-76
2022/04/02 12:22:27;;;;;;;1.75;0.32;;;19.60;23.60;;;;;;4923290;29;20035;-76
2022/04/02 12:25:08;;;;;;;3.15;0.40;;;19.70;22.60;;;;;;4922941;29;20123;-76
2022/04/02 12:27:35;;;;;;;;;;;19.00;25.00;;;;;;4927443;29;20031;-77
2022/04/02 12:30:08;;;;;;;1.50;0.70;;;18.20;25.50;;;;;;4930411;29;19914;-76
2022/04/02 12:32:38;;;;;;;1.05;0.47;;;18.00;24.10;;;;;;4927179;29;20093;-76
2022/04/02 12:35:31;;;;;;;2.67;0.60;;;18.90;24.70;;;;;;4927438;29;20027;-77
2022/04/02 12:38:01;;;;;;;1.13;0.40;;;19.10;24.80;;;;;;4921934;29;20158;-76
2022/04/02 12:40:38;;;;;;;2.08;0.50;;;17.30;24.00;;;;;;4925345;29;20083;-76
2022/04/02 12:43:09;;;;;;;2.67;0.80;;;15.80;26.30;;;;;;4927310;29;20062;-76
2022/04/02 12:45:37;;;;;;;2.83;0.70;;;15.60;26.20;;;;;;4927298;29;20500;-76
2022/04/02 12:50:36;;;;;;;2.53;0.50;;;19.10;24.00;;;;;;4936698;29;20057;-80
2022/04/02 12:53:03;;;;;;;2.20;0.35;;;20.80;20.10;;;;;;4936395;29;20123;-80
2022/04/02 12:55:32;;;;;;;1.50;0.30;;;21.70;20.00;;;;;;4947131;29;20019;-80
2022/04/02 12:58:07;;;;;;;2.92;0.45;;;21.60;17.90;;;;;;4938152;29;20024;-79
2022/04/02 13:00:34;;;;;;;2.17;0.40;;;22.60;18.10;;;;;;4916044;29;20024;-80
2022/04/02 13:03:02;;;;;;;0.80;0.30;;;23.00;18.90;;;;;;4915796;29;20028;-80
2022/04/02 13:05:44;;;;;;;2.45;0.65;;;22.60;17.70;;;;;;4915455;29;20020;-79
2022/04/02 13:08:21;;;;;;;4.28;0.47;;;23.00;19.60;;;;;;4916020;29;20035;-83
2022/04/02 13:10:50;;;;;;;1.92;0.30;;;23.50;18.30;;;;;;4917933;29;20059;-80
2022/04/02 13:13:17;;;;;;;1.98;0.38;;;21.90;18.90;;;;;;4924117;29;20028;-80